createdAt,value
2022-12-11T00:01:23.084Z,34.60
2022-12-11T00:04:27.317Z,38.23
2022-12-11T00:07:32.657Z,41.07
2022-12-11T00:10:37.920Z,36.07
2022-12-11T00:13:42.127Z,37.97
2022-12-11T00:16:46.050Z,38.30
2022-12-11T00:19:49.929Z,36.33
2022-12-11T00:22:55.018Z,35.50
2022-12-11T00:25:58.920Z,35.73
2022-12-11T00:29:02.590Z,37.23
2022-12-11T00:32:06.701Z,34.37
2022-12-11T00:35:11.511Z,36.53
2022-12-11T00:38:18.638Z,37.50
2022-12-11T00:41:22.775Z,35.20
2022-12-11T00:44:26.632Z,32.73
2022-12-11T00:47:30.356Z,33.43
2022-12-11T00:50:34.192Z,33.57
2022-12-11T00:53:39.665Z,31.30
2022-12-11T00:56:44.243Z,33.40
2022-12-11T00:59:47.904Z,31.87
2022-12-11T01:02:52.205Z,29.80
2022-12-11T01:05:56.563Z,29.50
2022-12-11T01:09:19.312Z,29.00
2022-12-11T01:12:23.240Z,30.00
2022-12-11T01:15:29.542Z,29.40
2022-12-11T01:18:33.315Z,28.07
2022-12-11T01:21:37.064Z,29.50
2022-12-11T01:24:42.416Z,29.20
2022-12-11T01:27:46.098Z,27.73
2022-12-11T01:30:49.738Z,25.70
2022-12-11T01:33:55.892Z,26.70
2022-12-11T01:36:59.582Z,27.43
2022-12-11T01:40:06.410Z,25.07
2022-12-11T01:43:12.936Z,25.30
2022-12-11T01:46:16.632Z,29.57
2022-12-11T01:49:22.994Z,25.37
2022-12-11T01:52:27.205Z,27.67
2022-12-11T01:55:33.234Z,27.77
2022-12-11T01:58:43.250Z,27.03
2022-12-11T02:01:51.923Z,27.40
2022-12-11T02:04:55.516Z,26.07
2022-12-11T02:08:03.144Z,25.63
2022-12-11T02:11:14.528Z,24.63
2022-12-11T02:14:26.578Z,26.87
2022-12-11T02:17:37.870Z,25.37
2022-12-11T02:20:46.329Z,24.27
2022-12-11T02:24:08.476Z,22.70
2022-12-11T02:27:28.893Z,22.33
2022-12-11T02:30:38.501Z,21.33
2022-12-11T02:33:48.073Z,23.93
2022-12-11T02:36:55.669Z,21.70
2022-12-11T02:39:59.362Z,21.03
2022-12-11T02:43:07.261Z,21.57
2022-12-11T02:46:13.904Z,23.07
2022-12-11T02:49:19.052Z,22.47
2022-12-11T02:52:25.143Z,22.60
2022-12-11T02:55:31.276Z,25.47
2022-12-11T02:58:39.016Z,27.33
2022-12-11T03:01:44.688Z,29.90
2022-12-11T03:04:49.047Z,28.87
2022-12-11T03:07:52.868Z,26.53
2022-12-11T03:10:56.663Z,29.80
2022-12-11T03:14:03.097Z,28.07
2022-12-11T03:17:15.430Z,24.43
2022-12-11T03:20:31.023Z,20.07
2022-12-11T03:23:41.528Z,17.13
2022-12-11T03:26:56.307Z,18.67
2022-12-11T03:30:06.208Z,20.47
2022-12-11T03:33:14.955Z,17.23
2022-12-11T03:36:23.637Z,16.90
2022-12-11T03:39:32.320Z,15.60
2022-12-11T03:42:38.716Z,11.07
2022-12-11T03:45:44.039Z,7.90
2022-12-11T03:48:50.065Z,12.20
2022-12-11T03:51:57.787Z,18.40
2022-12-11T03:55:06.491Z,19.63
2022-12-11T03:58:10.457Z,16.33
2022-12-11T04:01:14.336Z,14.37
2022-12-11T04:04:19.520Z,14.90
2022-12-11T04:07:23.466Z,14.47
2022-12-11T04:10:27.164Z,13.90
2022-12-11T04:13:30.743Z,14.43
2022-12-11T04:16:33.167Z,15.70
2022-12-11T04:19:55.802Z,15.67
2022-12-11T04:23:17.197Z,14.80
2022-12-11T04:26:22.004Z,14.40
2022-12-11T04:29:25.533Z,14.37
2022-12-11T04:32:29.167Z,14.47
2022-12-11T04:35:34.345Z,14.20
2022-12-11T04:38:38.708Z,12.93
2022-12-11T04:41:42.525Z,13.00
2022-12-11T04:44:46.153Z,11.27
2022-12-11T04:47:49.710Z,10.00
2022-12-11T04:50:54.773Z,8.27
2022-12-11T04:54:00.119Z,8.77
2022-12-11T04:57:03.635Z,8.73
2022-12-11T05:00:09.876Z,9.63
2022-12-11T05:03:13.529Z,11.00
2022-12-11T05:06:18.676Z,9.30
2022-12-11T05:09:22.258Z,9.13
2022-12-11T05:12:25.831Z,10.67
2022-12-11T05:15:29.441Z,11.77
2022-12-11T05:18:33.173Z,16.23
2022-12-11T05:21:38.186Z,31.57
2022-12-11T05:24:41.827Z,16.43
2022-12-11T05:27:45.754Z,12.87
2022-12-11T05:30:49.286Z,12.83
2022-12-11T05:33:53.650Z,15.47
2022-12-11T05:36:58.709Z,13.00
2022-12-11T05:40:02.554Z,13.13
2022-12-11T05:43:06.048Z,12.77
2022-12-11T05:46:11.836Z,14.90
2022-12-11T05:49:19.652Z,17.43
2022-12-11T05:52:24.973Z,19.47
2022-12-11T05:55:28.461Z,25.37
2022-12-11T05:58:32.757Z,22.73
2022-12-11T06:01:38.273Z,18.60
2022-12-11T06:04:41.955Z,16.40
2022-12-11T06:07:47.161Z,15.40
2022-12-11T06:10:52.117Z,16.97
2022-12-11T06:13:56.726Z,14.20
2022-12-11T06:17:00.429Z,13.43
2022-12-11T06:20:04.315Z,14.67
2022-12-11T06:23:09.755Z,15.93
2022-12-11T06:26:14.064Z,17.10
2022-12-11T06:29:18.349Z,16.50
2022-12-11T06:32:22.149Z,20.07
2022-12-11T06:35:25.822Z,17.73
2022-12-11T06:38:31.177Z,16.77
2022-12-11T06:41:35.095Z,19.00
2022-12-11T06:44:38.938Z,18.47
2022-12-11T06:47:42.816Z,20.43
2022-12-11T06:50:46.598Z,20.10
2022-12-11T06:53:54.903Z,18.90
2022-12-11T06:56:58.608Z,18.50
2022-12-11T07:00:02.565Z,16.67
2022-12-11T07:03:06.795Z,16.57
2022-12-11T07:06:10.744Z,16.20
2022-12-11T07:09:16.058Z,21.50
2022-12-11T07:12:19.909Z,19.10
2022-12-11T07:15:23.648Z,20.83
2022-12-11T07:18:27.896Z,21.93
2022-12-11T07:21:31.718Z,22.40
2022-12-11T07:24:37.159Z,22.67
2022-12-11T07:27:41.804Z,20.00
2022-12-11T07:30:45.849Z,22.93
2022-12-11T07:33:49.684Z,21.47
2022-12-11T07:36:53.609Z,23.80
2022-12-11T07:39:59.035Z,20.63
2022-12-11T07:43:02.926Z,20.83
2022-12-11T07:46:09.603Z,18.50
2022-12-11T07:49:13.755Z,22.77
2022-12-11T07:52:17.856Z,21.17
2022-12-11T07:55:25.589Z,26.43
2022-12-11T07:58:29.844Z,24.03
2022-12-11T08:01:36.708Z,22.83
2022-12-11T08:04:40.936Z,25.47
2022-12-11T08:07:44.774Z,23.27
2022-12-11T08:10:50.130Z,24.73
2022-12-11T08:13:54.096Z,28.77
2022-12-11T08:16:58.364Z,21.43
2022-12-11T08:20:02.150Z,24.43
2022-12-11T08:23:06.098Z,24.40
2022-12-11T08:26:13.152Z,27.03
2022-12-11T08:29:16.889Z,19.57
2022-12-11T08:32:20.829Z,18.27
2022-12-11T08:35:27.416Z,19.07
2022-12-11T08:38:31.797Z,26.13
2022-12-11T08:41:37.656Z,17.27
2022-12-11T08:44:41.489Z,19.13
2022-12-11T08:47:45.416Z,22.87
2022-12-11T08:50:49.336Z,17.07
2022-12-11T08:53:56.169Z,18.03
2022-12-11T08:57:01.480Z,16.97
2022-12-11T09:00:06.210Z,14.30
2022-12-11T09:03:12.979Z,13.10
2022-12-11T09:06:19.684Z,11.37
2022-12-11T09:09:23.552Z,13.40
2022-12-11T09:12:29.190Z,11.73
2022-12-11T09:15:33.058Z,12.90
2022-12-11T09:18:37.010Z,14.17
2022-12-11T09:21:40.841Z,14.63
2022-12-11T09:24:44.749Z,14.53
2022-12-11T09:27:50.069Z,12.57
2022-12-11T09:30:54.260Z,11.80
2022-12-11T09:34:02.900Z,10.60
2022-12-11T09:37:06.811Z,12.33
2022-12-11T09:40:12.812Z,10.03
2022-12-11T09:43:29.656Z,9.53
2022-12-11T09:46:34.807Z,11.60
2022-12-11T09:49:43.016Z,7.47
2022-12-11T09:53:08.657Z,8.10
2022-12-11T09:56:19.390Z,8.53
2022-12-11T09:59:32.074Z,8.77
2022-12-11T10:02:48.447Z,8.10
2022-12-11T10:06:04.772Z,8.00
2022-12-11T10:09:21.130Z,4.63
2022-12-11T10:12:38.528Z,5.57
2022-12-11T10:15:50.961Z,6.67
2022-12-11T10:18:55.536Z,7.90
2022-12-11T10:22:01.289Z,6.57
2022-12-11T10:25:11.650Z,7.27
2022-12-11T10:28:17.757Z,7.07
2022-12-11T10:31:33.938Z,7.00
2022-12-11T10:34:41.790Z,6.27
2022-12-11T10:37:45.751Z,5.93
2022-12-11T10:40:52.663Z,7.97
2022-12-11T10:43:56.534Z,7.27
2022-12-11T10:47:07.836Z,5.50
2022-12-11T10:50:25.260Z,5.00
2022-12-11T10:53:30.717Z,6.40
2022-12-11T10:56:37.565Z,6.40
2022-12-11T10:59:47.629Z,6.83
2022-12-11T11:02:52.939Z,8.37
2022-12-11T11:06:05.176Z,9.03
2022-12-11T11:09:30.618Z,9.70
2022-12-11T11:12:41.216Z,7.07
2022-12-11T11:15:45.232Z,5.83
2022-12-11T11:18:56.797Z,7.80
2022-12-11T11:22:07.031Z,5.70
2022-12-11T11:25:20.396Z,5.07
2022-12-11T11:28:27.896Z,7.03
2022-12-11T11:31:36.467Z,5.40
2022-12-11T11:34:41.736Z,5.63
2022-12-11T11:37:48.743Z,19.53
2022-12-11T11:41:04.876Z,12.50
2022-12-11T11:44:17.190Z,4.57
2022-12-11T11:47:26.069Z,8.27
2022-12-11T11:50:36.956Z,6.13
2022-12-11T11:53:42.033Z,7.13
2022-12-11T11:56:46.019Z,7.47
2022-12-11T11:59:56.210Z,7.17
2022-12-11T12:03:05.019Z,28.93
2022-12-11T12:06:19.135Z,4.60
2022-12-11T12:09:35.877Z,7.10
2022-12-11T12:12:51.208Z,4.07
2022-12-11T12:15:58.591Z,7.30
2022-12-11T12:19:10.251Z,4.33
2022-12-11T12:22:33.604Z,7.27
2022-12-11T12:25:43.416Z,5.33
2022-12-11T12:28:54.140Z,6.23
2022-12-11T12:32:09.949Z,36.90
2022-12-11T12:35:24.297Z,7.93
2022-12-11T12:38:41.777Z,13.53
2022-12-11T12:41:56.377Z,8.37
2022-12-11T12:45:05.230Z,14.63
2022-12-11T12:48:10.769Z,14.07
2022-12-11T12:51:16.355Z,11.27
2022-12-11T12:54:23.169Z,13.57
2022-12-11T12:57:26.997Z,12.23
2022-12-11T13:00:37.084Z,9.83
2022-12-11T13:03:52.634Z,9.60
2022-12-11T13:06:57.150Z,15.00
2022-12-11T13:10:06.836Z,9.37
2022-12-11T13:13:33.609Z,7.03
2022-12-11T13:16:39.909Z,7.33
2022-12-11T13:19:43.910Z,11.07
2022-12-11T13:22:55.319Z,14.57
2022-12-11T13:26:02.616Z,16.67
2022-12-11T13:29:06.931Z,15.90
2022-12-11T13:32:25.697Z,18.07
2022-12-11T13:35:29.851Z,12.97
2022-12-11T13:38:34.189Z,21.10
2022-12-11T13:41:40.509Z,15.93
2022-12-11T13:44:48.880Z,23.57
2022-12-11T13:47:52.852Z,21.50
2022-12-11T13:50:59.131Z,19.47
2022-12-11T13:54:17.500Z,19.50
2022-12-11T13:57:26.049Z,17.97
2022-12-11T14:00:33.037Z,12.97
2022-12-11T14:03:37.495Z,10.77
2022-12-11T14:06:41.875Z,16.43
2022-12-11T14:09:47.424Z,11.00
2022-12-11T14:12:58.155Z,6.33
2022-12-11T14:16:02.787Z,9.53
2022-12-11T14:19:10.096Z,10.30
2022-12-11T14:22:20.975Z,5.43
2022-12-11T14:25:27.430Z,3.60
2022-12-11T14:28:40.368Z,2.20
2022-12-11T14:31:45.988Z,3.20
2022-12-11T14:34:51.689Z,2.60
2022-12-11T14:37:57.196Z,2.50
2022-12-11T14:41:05.317Z,2.27
2022-12-11T14:44:16.536Z,2.60
2022-12-11T14:47:24.011Z,4.17
2022-12-11T14:50:31.569Z,1.00
2022-12-11T14:53:39.836Z,1.47
2022-12-11T14:56:47.893Z,21.60
2022-12-11T14:59:55.729Z,1.30
2022-12-11T15:03:01.673Z,1.40
2022-12-11T15:06:24.416Z,1.40
2022-12-11T15:09:31.119Z,0.97
2022-12-11T15:12:35.758Z,2.13
2022-12-11T15:15:47.748Z,2.53
2022-12-11T15:18:53.892Z,4.90
2022-12-11T15:22:04.536Z,6.10
2022-12-11T15:25:19.150Z,11.30
2022-12-11T15:28:30.516Z,1.90
2022-12-11T15:31:36.756Z,1.93
2022-12-11T15:34:45.812Z,1.97
2022-12-11T15:37:54.797Z,2.00
2022-12-11T15:40:59.076Z,9.07
2022-12-11T15:44:05.296Z,6.70
2022-12-11T15:47:15.637Z,3.63
2022-12-11T15:50:21.990Z,2.93
2022-12-11T15:53:25.978Z,3.40
2022-12-11T15:56:30.270Z,3.60
2022-12-11T15:59:34.571Z,3.40
2022-12-11T16:02:39.938Z,3.40
2022-12-11T16:05:44.131Z,2.47
2022-12-11T16:08:47.999Z,2.30
2022-12-11T16:11:52.210Z,3.07
2022-12-11T16:14:56.591Z,4.40
2022-12-11T16:18:07.360Z,3.27
2022-12-11T16:21:12.189Z,4.17
2022-12-11T16:24:18.110Z,7.40
2022-12-11T16:27:23.323Z,11.97
2022-12-11T16:30:28.291Z,11.33
2022-12-11T16:33:33.818Z,9.73
2022-12-11T16:36:38.255Z,19.33
2022-12-11T16:39:42.856Z,6.27
2022-12-11T16:42:47.011Z,5.60
2022-12-11T16:45:55.716Z,4.20
2022-12-11T16:49:01.109Z,5.63
2022-12-11T16:52:04.976Z,6.20
2022-12-11T16:55:10.293Z,5.63
2022-12-11T16:58:18.969Z,5.87
2022-12-11T17:01:23.005Z,3.20
2022-12-11T17:04:29.196Z,1.93
2022-12-11T17:07:33.415Z,1.57
2022-12-11T17:10:41.235Z,6.63
2022-12-11T17:13:45.894Z,15.23
2022-12-11T17:16:49.839Z,3.63
2022-12-11T17:19:55.150Z,4.60
2022-12-11T17:22:58.971Z,5.13
2022-12-11T17:26:02.956Z,5.13
2022-12-11T17:29:07.216Z,5.60
2022-12-11T17:32:11.236Z,3.00
2022-12-11T17:35:16.776Z,2.90
2022-12-11T17:38:20.543Z,4.00
2022-12-11T17:41:24.601Z,4.00
2022-12-11T17:44:30.799Z,3.60
2022-12-11T17:47:34.619Z,6.10
2022-12-11T17:50:43.255Z,2.10
2022-12-11T17:53:47.126Z,2.00
2022-12-11T17:56:50.972Z,5.33
2022-12-11T17:59:56.290Z,2.57
2022-12-11T18:03:00.242Z,8.00
2022-12-11T18:06:09.050Z,3.73
2022-12-11T18:09:12.956Z,10.27
2022-12-11T18:12:17.916Z,9.47
2022-12-11T18:15:21.968Z,3.30
2022-12-11T18:18:25.839Z,1.03
2022-12-11T18:21:33.877Z,2.40
2022-12-11T18:24:37.729Z,2.40
2022-12-11T18:27:41.810Z,1.03
2022-12-11T18:30:45.830Z,1.40
2022-12-11T18:33:50.097Z,1.70
2022-12-11T18:36:55.910Z,2.23
2022-12-11T18:40:00.413Z,2.20
2022-12-11T18:43:04.357Z,1.37
2022-12-11T18:46:09.037Z,1.60
2022-12-11T18:49:13.110Z,13.03
2022-12-11T18:52:18.591Z,2.67
2022-12-11T18:55:22.676Z,1.10
2022-12-11T18:58:26.576Z,2.43
2022-12-11T19:01:33.303Z,1.50
2022-12-11T19:04:37.975Z,6.07
2022-12-11T19:07:43.336Z,4.60
2022-12-11T19:10:48.837Z,3.80
2022-12-11T19:13:53.673Z,2.00
2022-12-11T19:16:57.715Z,1.13
2022-12-11T19:20:18.773Z,2.40
2022-12-11T19:23:27.129Z,7.10
2022-12-11T19:26:31.392Z,1.40
2022-12-11T19:29:35.292Z,3.00
2022-12-11T19:32:39.157Z,6.20
2022-12-11T19:35:43.583Z,5.00
2022-12-11T19:38:49.529Z,1.53
2022-12-11T19:41:53.475Z,9.63
2022-12-11T19:44:57.331Z,5.60
2022-12-11T19:48:01.195Z,6.90
2022-12-11T19:51:06.795Z,3.13
2022-12-11T19:54:16.403Z,2.27
2022-12-11T19:57:20.249Z,1.50
2022-12-11T20:00:24.808Z,1.87
2022-12-11T20:03:29.215Z,1.53
2022-12-11T20:06:34.636Z,4.80
2022-12-11T20:09:40.019Z,1.43
2022-12-11T20:12:43.977Z,0.93
2022-12-11T20:15:47.770Z,1.30
2022-12-11T20:18:52.197Z,1.23
2022-12-11T20:21:57.011Z,0.93
2022-12-11T20:25:02.297Z,0.83
2022-12-11T20:28:06.558Z,0.80
2022-12-11T20:31:19.569Z,0.90
2022-12-11T20:34:23.971Z,5.20
2022-12-11T20:37:29.362Z,7.97
2022-12-11T20:40:34.935Z,2.70
2022-12-11T20:43:39.717Z,3.50
2022-12-11T20:46:43.710Z,1.90
2022-12-11T20:49:47.596Z,8.60
2022-12-11T20:52:51.490Z,3.27
2022-12-11T20:55:56.831Z,5.60
2022-12-11T20:59:01.558Z,5.23
2022-12-11T21:02:05.935Z,5.10
2022-12-11T21:05:10.572Z,21.90
2022-12-11T21:08:14.987Z,11.73
2022-12-11T21:11:20.658Z,2.80
2022-12-11T21:14:26.902Z,9.23
2022-12-11T21:17:30.816Z,9.73
2022-12-11T21:20:35.145Z,16.80
2022-12-11T21:23:39.015Z,3.53
2022-12-11T21:26:44.435Z,2.70
2022-12-11T21:29:48.335Z,2.10
2022-12-11T21:32:52.156Z,5.07
2022-12-11T21:35:57.536Z,18.53
2022-12-11T21:39:02.788Z,40.17
2022-12-11T21:42:08.038Z,102.47
2022-12-11T21:48:36.569Z,1.80
2022-12-11T21:51:46.828Z,5.73
2022-12-11T21:54:51.317Z,3.73
2022-12-11T21:57:57.309Z,12.13
2022-12-11T22:01:01.233Z,5.70
2022-12-11T22:04:06.416Z,6.80
2022-12-11T22:07:10.270Z,3.77
2022-12-11T22:10:14.030Z,4.50
2022-12-11T22:13:19.388Z,2.10
2022-12-11T22:16:23.462Z,1.73
2022-12-11T22:19:32.281Z,1.40
2022-12-11T22:22:36.628Z,1.80
2022-12-11T22:25:40.796Z,1.87
2022-12-11T22:28:46.284Z,1.53
2022-12-11T22:31:50.184Z,2.93
2022-12-11T22:34:54.555Z,1.63
2022-12-11T22:37:58.505Z,1.60
2022-12-11T22:41:04.915Z,1.37
2022-12-11T22:44:15.965Z,1.40
2022-12-11T22:47:20.429Z,1.50
2022-12-11T22:50:24.334Z,1.70
2022-12-11T22:53:28.183Z,1.50
2022-12-11T22:56:32.429Z,1.93
2022-12-11T22:59:38.049Z,1.90
2022-12-11T23:02:43.215Z,1.60
2022-12-11T23:05:47.175Z,1.77
2022-12-11T23:08:51.437Z,1.57
2022-12-11T23:11:55.935Z,1.50
2022-12-11T23:15:04.243Z,1.70
2022-12-11T23:18:08.260Z,1.50
2022-12-11T23:21:13.228Z,1.57
2022-12-11T23:24:17.069Z,1.47
2022-12-11T23:27:20.956Z,1.53
2022-12-11T23:30:26.318Z,2.00
2022-12-11T23:33:30.295Z,1.50
2022-12-11T23:36:34.535Z,1.87
2022-12-11T23:39:38.496Z,1.73
2022-12-11T23:42:42.209Z,1.53
2022-12-11T23:45:48.344Z,1.70
2022-12-11T23:48:52.926Z,1.30
2022-12-11T23:51:57.017Z,1.77
2022-12-11T23:55:00.802Z,1.43
2022-12-11T23:58:04.696Z,1.50
